Time;durP1;ratioP1;P1;durP2;ratioP2;P2;SDS_P1;SDS_P2;PMS_P1;PMS_P2;Temp;Humidity;BMP_temperature;BMP_pressure;BME280_temperature;BME280_humidity;BME280_pressure;Samples;Min_cycle;Max_cycle;Signal;HPM_P1;HPM_P2
2023/09/29 00:01:32;;;;;;;13.18;2.55;;;13.30;99.90;;;;;;4973313;28;20030;-93
2023/09/29 00:03:59;;;;;;;10.05;2.38;;;13.40;99.90;;;;;;4972983;28;20019;-92
2023/09/29 00:06:25;;;;;;;12.13;2.63;;;13.40;99.90;;;;;;4973255;28;20027;-92
2023/09/29 00:08:50;;;;;;;10.10;2.45;;;13.40;99.90;;;;;;4973081;28;20038;-92
2023/09/29 00:11:16;;;;;;;11.90;2.80;;;13.40;99.90;;;;;;4972967;28;20030;-91
2023/09/29 00:13:41;;;;;;;5.28;2.08;;;13.50;99.90;;;;;;4972499;28;20540;-93
2023/09/29 00:16:07;;;;;;;5.78;2.25;;;13.50;99.90;;;;;;4973374;28;20046;-92
2023/09/29 00:18:33;;;;;;;10.73;2.30;;;13.50;99.90;;;;;;4973184;28;20027;-92
2023/09/29 00:20:59;;;;;;;11.00;3.08;;;13.50;99.90;;;;;;4974140;28;20078;-93
2023/09/29 00:23:25;;;;;;;10.00;2.67;;;13.50;99.90;;;;;;4972583;28;20084;-93
2023/09/29 00:25:50;;;;;;;13.63;2.60;;;13.50;99.90;;;;;;4973005;28;20030;-92
2023/09/29 00:28:16;;;;;;;9.07;2.15;;;13.50;99.90;;;;;;4972857;28;20537;-92
2023/09/29 00:30:43;;;;;;;8.68;2.10;;;13.50;99.90;;;;;;4972914;28;20481;-92
2023/09/29 00:33:09;;;;;;;12.30;3.05;;;13.40;99.90;;;;;;4972052;28;20078;-92
2023/09/29 00:35:34;;;;;;;8.40;2.47;;;13.50;99.90;;;;;;4976092;28;20031;-93
2023/09/29 00:38:01;;;;;;;10.50;2.53;;;13.40;99.90;;;;;;4976560;28;20031;-92
2023/09/29 00:40:28;;;;;;;8.32;2.08;;;13.40;99.90;;;;;;4976217;28;20031;-92
2023/09/29 00:42:54;;;;;;;9.52;1.98;;;13.40;99.90;;;;;;4975873;28;20023;-91
2023/09/29 00:45:23;;;;;;;14.13;2.92;;;13.40;99.90;;;;;;4976888;28;20074;-92
2023/09/29 00:47:51;;;;;;;7.03;2.28;;;13.40;99.90;;;;;;4977188;28;20030;-92
2023/09/29 00:50:19;;;;;;;7.07;2.55;;;13.40;99.90;;;;;;4976965;28;20054;-93
2023/09/29 00:52:47;;;;;;;10.75;2.72;;;13.40;99.90;;;;;;4977093;28;20034;-93
2023/09/29 00:55:16;;;;;;;14.68;2.45;;;13.40;99.90;;;;;;4978674;28;20034;-92
2023/09/29 00:57:44;;;;;;;8.68;2.45;;;13.40;99.90;;;;;;4979951;28;20035;-93
2023/09/29 01:00:14;;;;;;;7.00;2.13;;;13.40;99.90;;;;;;4976993;28;20102;-92
2023/09/29 01:02:43;;;;;;;6.78;2.10;;;13.40;99.90;;;;;;4977840;28;20034;-93
2023/09/29 01:05:12;;;;;;;10.40;2.47;;;13.40;99.90;;;;;;4976094;28;20027;-92
2023/09/29 01:07:38;;;;;;;7.63;2.28;;;13.40;99.90;;;;;;4961872;28;20055;-94
2023/09/29 01:10:04;;;;;;;6.25;2.50;;;13.40;99.90;;;;;;4975824;28;20035;-92
2023/09/29 01:12:31;;;;;;;5.40;1.92;;;13.40;99.90;;;;;;4975910;28;20193;-92
2023/09/29 01:14:57;;;;;;;10.75;3.60;;;13.40;99.90;;;;;;4975941;28;20476;-91
2023/09/29 01:17:25;;;;;;;6.18;2.17;;;13.40;99.90;;;;;;4975997;28;20027;-92
2023/09/29 01:19:51;;;;;;;8.52;2.50;;;13.40;99.90;;;;;;4975427;28;20058;-92
2023/09/29 01:22:17;;;;;;;12.88;2.95;;;13.40;99.90;;;;;;4975793;28;20039;-91
2023/09/29 01:24:44;;;;;;;7.35;2.28;;;13.30;99.90;;;;;;4975465;28;20081;-92
2023/09/29 01:27:10;;;;;;;9.98;2.40;;;13.40;99.90;;;;;;4975532;28;20500;-92
2023/09/29 01:29:36;;;;;;;11.48;2.65;;;13.40;99.90;;;;;;4975801;28;20026;-91
2023/09/29 01:32:01;;;;;;;6.22;2.50;;;13.40;99.90;;;;;;4976829;28;20077;-92
2023/09/29 01:34:31;;;;;;;9.65;2.50;;;13.30;99.90;;;;;;4975386;28;20031;-92
2023/09/29 01:36:59;;;;;;;5.80;2.20;;;13.30;99.90;;;;;;4975278;28;20035;-92
2023/09/29 01:39:25;;;;;;;8.40;3.03;;;13.30;99.90;;;;;;4975155;28;20550;-91
2023/09/29 01:41:52;;;;;;;9.20;2.53;;;13.30;99.90;;;;;;4975278;28;20031;-91
2023/09/29 01:44:17;;;;;;;7.63;2.20;;;13.30;99.90;;;;;;4975407;28;20047;-92
2023/09/29 01:46:43;;;;;;;10.68;2.47;;;13.30;99.90;;;;;;4974534;28;20437;-91
2023/09/29 01:49:09;;;;;;;8.07;2.17;;;13.30;99.90;;;;;;4975713;28;20511;-92
2023/09/29 01:51:35;;;;;;;8.65;2.72;;;13.30;99.90;;;;;;4975507;28;20469;-91
2023/09/29 01:54:00;;;;;;;7.57;2.20;;;13.30;99.90;;;;;;4975884;28;20365;-92
2023/09/29 01:56:26;;;;;;;12.07;2.50;;;13.30;99.90;;;;;;4974983;28;20035;-91
2023/09/29 01:58:52;;;;;;;8.13;2.30;;;13.30;99.90;;;;;;4982504;28;20034;-92
2023/09/29 02:01:17;;;;;;;8.73;2.55;;;13.30;99.90;;;;;;4981609;28;20393;-93
2023/09/29 02:03:48;;;;;;;9.60;2.75;;;13.30;99.90;;;;;;4975526;28;20051;-92
2023/09/29 02:06:15;;;;;;;9.23;2.53;;;13.30;99.90;;;;;;4977586;28;20106;-92
2023/09/29 02:08:49;;;;;;;4.90;2.40;;;13.30;99.90;;;;;;4980493;28;20027;-91
2023/09/29 02:11:15;;;;;;;12.10;2.58;;;13.20;99.90;;;;;;4981190;28;20025;-92
2023/09/29 02:13:40;;;;;;;7.10;2.33;;;13.30;99.90;;;;;;4979990;28;20460;-91
2023/09/29 02:16:15;;;;;;;8.05;3.08;;;13.30;99.90;;;;;;4981387;28;20042;-92
2023/09/29 02:18:41;;;;;;;3.72;1.92;;;13.20;99.90;;;;;;4976794;28;20062;-92
2023/09/29 02:21:07;;;;;;;8.68;2.15;;;13.20;99.90;;;;;;4976493;28;20049;-92
2023/09/29 02:23:33;;;;;;;9.10;2.55;;;13.20;99.90;;;;;;4976788;28;20019;-92
2023/09/29 02:26:00;;;;;;;8.88;2.80;;;13.20;99.90;;;;;;4979942;28;20031;-92
2023/09/29 02:28:30;;;;;;;7.03;2.30;;;13.30;99.90;;;;;;4978487;28;20126;-93
2023/09/29 02:30:57;;;;;;;;;;;13.30;99.90;;;;;;4979547;28;20022;-93
2023/09/29 02:33:24;;;;;;;9.90;2.75;;;13.30;99.90;;;;;;4960433;28;19910;-93
2023/09/29 02:35:50;;;;;;;9.73;2.78;;;13.30;99.90;;;;;;4975077;28;20489;-92
2023/09/29 02:38:16;;;;;;;8.93;2.60;;;13.30;99.90;;;;;;4975445;28;20026;-92
2023/09/29 02:40:42;;;;;;;8.48;2.42;;;13.20;99.90;;;;;;4975101;28;20095;-92
2023/09/29 02:43:09;;;;;;;11.57;2.92;;;13.30;99.90;;;;;;4974369;28;20102;-92
2023/09/29 02:45:40;;;;;;;11.00;2.90;;;13.30;99.90;;;;;;4974788;28;20125;-92
2023/09/29 02:48:07;;;;;;;7.63;2.58;;;13.30;99.90;;;;;;4974361;28;20428;-92
2023/09/29 02:50:35;;;;;;;18.15;4.10;;;13.30;99.90;;;;;;4974374;28;20035;-93
2023/09/29 02:53:02;;;;;;;11.70;3.38;;;13.30;99.90;;;;;;4974240;28;20027;-93
2023/09/29 02:55:28;;;;;;;12.70;3.17;;;13.30;99.90;;;;;;4974618;28;20038;-92
2023/09/29 02:57:54;;;;;;;9.85;3.78;;;13.30;99.90;;;;;;4973663;28;20033;-92
2023/09/29 03:00:22;;;;;;;18.63;4.15;;;13.30;99.90;;;;;;4974334;28;20086;-92
2023/09/29 03:02:48;;;;;;;10.52;2.53;;;13.30;99.90;;;;;;4975436;28;20086;-92
2023/09/29 03:05:15;;;;;;;12.80;3.70;;;13.30;99.90;;;;;;4974182;28;20038;-91
2023/09/29 03:07:41;;;;;;;9.60;2.95;;;13.30;99.90;;;;;;4974168;28;20024;-92
2023/09/29 03:10:08;;;;;;;11.00;2.55;;;13.30;99.90;;;;;;4975267;28;20037;-91
2023/09/29 03:12:36;;;;;;;11.18;2.60;;;13.20;99.90;;;;;;4974677;28;20026;-91
2023/09/29 03:15:03;;;;;;;17.83;3.20;;;13.20;99.90;;;;;;4960014;28;20047;-91
2023/09/29 03:17:29;;;;;;;10.10;2.63;;;13.20;99.90;;;;;;4975241;28;20022;-92
2023/09/29 03:19:55;;;;;;;18.85;3.40;;;13.20;99.90;;;;;;4973965;28;20130;-91
2023/09/29 03:22:20;;;;;;;15.80;3.10;;;13.20;99.90;;;;;;4957566;28;20026;-92
2023/09/29 03:24:46;;;;;;;18.02;3.50;;;13.20;99.90;;;;;;4973815;28;20058;-90
2023/09/29 03:27:12;;;;;;;14.52;2.90;;;13.20;99.90;;;;;;4973853;28;20113;-92
2023/09/29 03:29:37;;;;;;;13.48;2.83;;;13.30;99.90;;;;;;4973438;28;20142;-90
2023/09/29 03:32:04;;;;;;;18.38;3.22;;;13.30;99.90;;;;;;4973620;28;20023;-90
2023/09/29 03:34:29;;;;;;;11.32;2.70;;;13.30;99.90;;;;;;4957687;28;20042;-91
2023/09/29 03:36:56;;;;;;;7.53;2.03;;;13.30;99.90;;;;;;4973027;28;20031;-92
2023/09/29 03:39:21;;;;;;;13.02;2.42;;;13.30;99.90;;;;;;4973351;28;20026;-91
2023/09/29 03:41:47;;;;;;;9.95;2.30;;;13.30;99.90;;;;;;4973903;28;20034;-93
2023/09/29 03:44:13;;;;;;;6.68;2.10;;;13.30;99.90;;;;;;4975293;28;20386;-91
2023/09/29 03:46:39;;;;;;;6.10;1.60;;;13.30;99.90;;;;;;4975386;28;20038;-92
2023/09/29 03:49:05;;;;;;;7.95;2.28;;;13.30;99.90;;;;;;4959575;28;20065;-93
2023/09/29 03:51:30;;;;;;;13.38;3.45;;;13.20;99.90;;;;;;4958770;28;20061;-92
2023/09/29 03:53:57;;;;;;;19.30;6.38;;;13.20;99.90;;;;;;4957760;28;20500;-92
2023/09/29 03:56:23;;;;;;;21.85;6.10;;;13.10;99.90;;;;;;4957564;28;20034;-91
2023/09/29 03:58:49;;;;;;;18.80;4.95;;;13.00;99.90;;;;;;4957292;28;20046;-91
2023/09/29 04:01:16;;;;;;;18.73;6.47;;;12.90;99.90;;;;;;4957352;28;20077;-92
2023/09/29 04:03:42;;;;;;;20.65;6.05;;;12.90;99.90;;;;;;4956975;28;20033;-92
2023/09/29 04:06:11;;;;;;;16.95;5.60;;;12.80;99.90;;;;;;4957004;28;20034;-92
2023/09/29 04:08:38;;;;;;;19.25;5.97;;;12.80;99.90;;;;;;4956839;28;20122;-92
2023/09/29 04:11:04;;;;;;;21.92;6.30;;;12.80;99.90;;;;;;4959037;28;20070;-91
2023/09/29 04:13:29;;;;;;;18.65;6.28;;;12.70;99.90;;;;;;4957731;29;20142;-91
2023/09/29 04:15:55;;;;;;;22.60;6.63;;;12.60;99.90;;;;;;4957547;28;20050;-91
2023/09/29 04:18:21;;;;;;;19.92;6.45;;;12.60;99.90;;;;;;4957482;29;20028;-92
2023/09/29 04:20:46;;;;;;;22.73;6.43;;;12.60;99.90;;;;;;4957048;29;20031;-92
2023/09/29 04:23:12;;;;;;;24.65;6.35;;;12.50;99.90;;;;;;4957149;29;20112;-92
2023/09/29 04:25:38;;;;;;;19.98;5.82;;;12.50;99.90;;;;;;4961077;28;20016;-92
2023/09/29 04:28:04;;;;;;;24.60;6.57;;;12.50;99.90;;;;;;4952237;28;20551;-91
2023/09/29 04:30:30;;;;;;;23.63;6.75;;;12.40;99.90;;;;;;4977596;28;20025;-91
2023/09/29 04:32:56;;;;;;;23.42;6.45;;;12.40;99.90;;;;;;4960119;28;20058;-92
2023/09/29 04:35:21;;;;;;;27.25;6.88;;;12.30;99.90;;;;;;4960183;28;20077;-91
2023/09/29 04:37:49;;;;;;;22.67;6.60;;;12.30;99.90;;;;;;4959911;28;20085;-91
2023/09/29 04:40:15;;;;;;;25.55;7.20;;;12.20;99.90;;;;;;4960209;28;20039;-91
2023/09/29 04:42:41;;;;;;;23.50;7.20;;;12.30;99.90;;;;;;4960164;28;20027;-92
2023/09/29 04:45:07;;;;;;;27.98;7.78;;;12.20;99.90;;;;;;4959050;28;20457;-93
2023/09/29 04:47:33;;;;;;;29.38;7.18;;;12.20;99.90;;;;;;4959505;28;20023;-93
2023/09/29 04:49:59;;;;;;;23.05;7.07;;;12.30;99.90;;;;;;4959838;28;20031;-92
2023/09/29 04:52:27;;;;;;;22.50;6.68;;;12.20;99.90;;;;;;4960110;28;20461;-92
2023/09/29 04:54:53;;;;;;;26.55;7.45;;;12.20;99.90;;;;;;4959907;28;20030;-92
2023/09/29 04:57:19;;;;;;;26.35;6.28;;;12.20;99.90;;;;;;4958343;28;20037;-92
2023/09/29 04:59:45;;;;;;;28.20;7.55;;;12.20;99.90;;;;;;4947812;28;20057;-92
2023/09/29 05:02:11;;;;;;;30.25;6.47;;;12.30;99.90;;;;;;4967095;28;20074;-92
2023/09/29 05:04:37;;;;;;;17.15;4.82;;;12.30;99.90;;;;;;4966291;28;20524;-92
2023/09/29 05:07:02;;;;;;;23.38;6.13;;;12.20;99.90;;;;;;4960897;28;20474;-92
2023/09/29 05:09:28;;;;;;;21.63;4.82;;;12.20;99.90;;;;;;4964145;29;20050;-91
2023/09/29 05:11:54;;;;;;;17.13;4.85;;;12.20;99.90;;;;;;4963492;29;20509;-91
2023/09/29 05:14:19;;;;;;;20.60;5.35;;;12.20;99.90;;;;;;4964843;29;20067;-92
2023/09/29 05:16:47;;;;;;;21.15;5.30;;;12.20;99.90;;;;;;4961753;29;20510;-92
2023/09/29 05:19:13;;;;;;;16.45;5.22;;;12.20;99.90;;;;;;4977154;28;20022;-91
2023/09/29 05:21:38;;;;;;;18.65;5.38;;;12.20;99.90;;;;;;4961465;28;20041;-92
2023/09/29 05:24:04;;;;;;;19.50;4.28;;;12.10;99.90;;;;;;4961592;28;20035;-92
2023/09/29 05:26:30;;;;;;;17.30;4.38;;;12.10;99.90;;;;;;4960900;28;20071;-92
2023/09/29 05:28:56;;;;;;;15.80;4.28;;;12.10;99.90;;;;;;4960257;28;20027;-91
2023/09/29 05:31:22;;;;;;;16.45;5.05;;;12.00;99.90;;;;;;4959853;28;20397;-92
2023/09/29 05:33:48;;;;;;;23.48;4.70;;;12.00;99.90;;;;;;4960030;28;20075;-92
2023/09/29 05:36:14;;;;;;;20.17;4.15;;;12.00;99.90;;;;;;4959839;28;20046;-92
2023/09/29 05:38:40;;;;;;;20.83;4.57;;;12.00;99.90;;;;;;4959157;28;20023;-92
2023/09/29 05:41:06;;;;;;;24.85;4.97;;;12.00;99.90;;;;;;4960217;28;20027;-93
2023/09/29 05:43:33;;;;;;;20.83;4.70;;;12.00;99.90;;;;;;4976274;28;20039;-91
2023/09/29 05:45:58;;;;;;;18.08;4.38;;;12.00;99.90;;;;;;4959349;28;20397;-92
2023/09/29 05:48:24;;;;;;;25.58;5.22;;;12.00;99.90;;;;;;4959298;28;20047;-91
2023/09/29 05:50:50;;;;;;;20.73;3.72;;;12.00;99.90;;;;;;4958706;28;20027;-91
2023/09/29 05:53:18;;;;;;;17.77;3.92;;;12.00;99.90;;;;;;4948830;28;20027;-92
2023/09/29 05:55:44;;;;;;;18.70;4.15;;;12.10;99.90;;;;;;4947874;29;20043;-92
2023/09/29 05:58:10;;;;;;;25.35;4.43;;;12.10;99.90;;;;;;4967474;28;20029;-92
2023/09/29 06:00:37;;;;;;;14.93;4.03;;;12.10;99.90;;;;;;4969708;28;20060;-92
2023/09/29 06:03:02;;;;;;;19.02;4.53;;;12.10;99.90;;;;;;4968028;28;20027;-92
2023/09/29 06:05:29;;;;;;;20.40;4.43;;;12.10;99.90;;;;;;4965995;28;20029;-93
2023/09/29 06:07:55;;;;;;;20.13;3.63;;;12.10;99.90;;;;;;4967013;28;20031;-93
2023/09/29 06:10:21;;;;;;;15.35;3.97;;;12.10;99.90;;;;;;4966297;28;20062;-93
2023/09/29 06:12:50;;;;;;;18.92;4.30;;;12.10;99.90;;;;;;4964440;28;20066;-93
2023/09/29 06:15:16;;;;;;;23.65;4.63;;;12.10;99.90;;;;;;4965537;28;20113;-93
2023/09/29 06:17:41;;;;;;;19.33;4.90;;;12.10;99.90;;;;;;4953550;28;20078;-92
2023/09/29 06:20:07;;;;;;;23.88;5.22;;;12.20;99.90;;;;;;4966488;28;20461;-92
2023/09/29 06:22:34;;;;;;;27.17;4.60;;;12.20;99.90;;;;;;4965697;28;20369;-92
2023/09/29 06:25:00;;;;;;;27.55;5.68;;;12.20;99.90;;;;;;4964929;28;20027;-93
2023/09/29 06:27:33;;;;;;;19.40;4.53;;;12.20;99.90;;;;;;4956020;28;20027;-92
2023/09/29 06:30:06;;;;;;;23.20;4.15;;;12.20;99.90;;;;;;4938390;28;20031;-94
2023/09/29 06:32:31;;;;;;;18.15;3.97;;;12.20;99.90;;;;;;4948712;28;20090;-93
2023/09/29 06:34:57;;;;;;;26.02;4.93;;;12.20;99.90;;;;;;4972555;28;20036;-93
2023/09/29 06:37:23;;;;;;;17.50;3.80;;;12.20;99.90;;;;;;4954058;28;20425;-93
2023/09/29 06:39:52;;;;;;;21.15;5.03;;;12.20;99.90;;;;;;4954050;28;20568;-92
2023/09/29 06:42:18;;;;;;;21.15;4.55;;;12.20;99.90;;;;;;4938302;29;20050;-91
2023/09/29 06:44:44;;;;;;;20.23;4.72;;;12.20;99.90;;;;;;4934792;29;20502;-94
2023/09/29 06:47:12;;;;;;;19.45;4.38;;;12.20;99.90;;;;;;4940532;29;20553;-92
2023/09/29 06:49:38;;;;;;;19.30;4.10;;;12.20;99.90;;;;;;4943291;29;20028;-92
2023/09/29 06:52:04;;;;;;;27.48;4.20;;;12.20;99.90;;;;;;4936050;29;20314;-92
2023/09/29 06:54:29;;;;;;;20.83;4.65;;;12.30;99.90;;;;;;4939089;29;20048;-92
2023/09/29 06:56:55;;;;;;;16.90;3.42;;;12.30;99.90;;;;;;4950869;28;20486;-93
2023/09/29 06:59:21;;;;;;;20.60;4.38;;;12.30;99.90;;;;;;4948269;28;20027;-94
2023/09/29 07:01:47;;;;;;;15.55;3.20;;;12.30;99.90;;;;;;4935019;29;20574;-92
2023/09/29 07:04:12;;;;;;;23.30;4.60;;;12.30;99.90;;;;;;4952564;28;20031;-92
2023/09/29 07:06:38;;;;;;;24.80;4.03;;;12.40;99.90;;;;;;4970677;28;20178;-92
2023/09/29 07:09:04;;;;;;;20.52;3.88;;;12.40;99.90;;;;;;4954862;29;20039;-92
2023/09/29 07:11:29;;;;;;;22.25;4.50;;;12.40;99.90;;;;;;4970366;28;20034;-92
2023/09/29 07:13:55;;;;;;;22.17;4.32;;;12.50;99.90;;;;;;4971001;28;20438;-92
2023/09/29 07:16:21;;;;;;;27.60;4.68;;;12.50;99.90;;;;;;4954092;28;20129;-93
2023/09/29 07:18:47;;;;;;;20.23;3.97;;;12.50;99.90;;;;;;4951287;28;20115;-91
2023/09/29 07:21:14;;;;;;;17.75;3.17;;;12.50;99.90;;;;;;4943085;29;20426;-92
2023/09/29 07:23:44;;;;;;;18.20;3.58;;;12.50;99.90;;;;;;4963318;28;20086;-92
2023/09/29 07:26:10;;;;;;;18.83;3.70;;;12.60;99.90;;;;;;4958732;28;20111;-93
2023/09/29 07:28:35;;;;;;;21.52;3.20;;;12.60;99.90;;;;;;4955466;28;20047;-91
2023/09/29 07:31:01;;;;;;;17.95;3.00;;;12.60;99.90;;;;;;4960233;28;20046;-91
2023/09/29 07:33:27;;;;;;;21.98;3.00;;;12.70;99.90;;;;;;4956856;28;20042;-91
2023/09/29 07:35:54;;;;;;;17.77;3.38;;;12.70;99.90;;;;;;4957838;28;20099;-92
2023/09/29 07:38:20;;;;;;;17.20;3.47;;;12.80;99.90;;;;;;4965107;28;20023;-92
2023/09/29 07:40:48;;;;;;;18.67;3.28;;;12.80;99.90;;;;;;4955496;28;20039;-92
2023/09/29 07:43:13;;;;;;;16.08;3.55;;;12.90;99.90;;;;;;4964456;28;20019;-91
2023/09/29 07:45:39;;;;;;;12.50;2.92;;;12.90;99.90;;;;;;4966927;28;20089;-93
2023/09/29 07:48:05;;;;;;;34.47;3.60;;;12.90;99.90;;;;;;4947273;28;20058;-93
2023/09/29 07:50:31;;;;;;;17.38;3.22;;;12.90;99.90;;;;;;4950458;28;20032;-93
2023/09/29 07:52:57;;;;;;;18.45;3.33;;;13.00;99.90;;;;;;4963595;28;20042;-92
2023/09/29 07:55:23;;;;;;;10.98;3.10;;;13.00;99.90;;;;;;4965156;28;20045;-92
2023/09/29 07:57:51;;;;;;;18.75;3.15;;;13.00;99.90;;;;;;4967537;28;20019;-92
2023/09/29 08:00:17;;;;;;;14.60;3.28;;;13.10;99.90;;;;;;4966519;28;20030;-92
2023/09/29 08:02:43;;;;;;;15.35;3.17;;;13.10;99.90;;;;;;4964231;28;20034;-92
2023/09/29 08:05:12;;;;;;;19.23;3.63;;;13.10;99.90;;;;;;4973234;28;20528;-93
2023/09/29 08:07:41;;;;;;;12.07;2.92;;;13.10;99.90;;;;;;4968806;28;20031;-93
2023/09/29 08:10:10;;;;;;;17.80;3.65;;;13.10;99.90;;;;;;4971540;28;20026;-92
2023/09/29 08:12:41;;;;;;;12.88;2.25;;;13.20;99.90;;;;;;4950271;28;20023;-92
2023/09/29 08:15:10;;;;;;;14.90;3.33;;;13.20;99.90;;;;;;4968320;28;20031;-92
2023/09/29 08:18:05;;;;;;;14.07;2.78;;;13.20;99.90;;;;;;4968240;28;20026;-94
2023/09/29 08:20:32;;;;;;;19.38;3.15;;;13.30;99.90;;;;;;4952893;28;20023;-93
2023/09/29 08:22:58;;;;;;;13.15;2.28;;;13.30;99.90;;;;;;4975436;28;20032;-93
2023/09/29 08:25:27;;;;;;;17.10;3.67;;;13.30;99.90;;;;;;4972350;28;20034;-95
2023/09/29 08:27:52;;;;;;;16.42;2.85;;;13.30;99.90;;;;;;4968817;28;20051;-94
2023/09/29 08:30:18;;;;;;;21.23;3.10;;;13.30;99.90;;;;;;4968347;28;20377;-93
2023/09/29 08:32:44;;;;;;;17.23;3.20;;;13.40;99.90;;;;;;4965885;28;20035;-94
2023/09/29 08:35:13;;;;;;;14.15;2.50;;;13.40;99.90;;;;;;4970520;28;20035;-93
2023/09/29 08:37:40;;;;;;;14.95;3.22;;;13.40;99.90;;;;;;4969092;28;20091;-95
2023/09/29 08:40:19;;;;;;;18.38;3.85;;;13.50;99.90;;;;;;4970619;28;20081;-94
2023/09/29 08:42:49;;;;;;;14.65;3.42;;;13.50;99.90;;;;;;4974974;28;20063;-96
2023/09/29 08:45:17;;;;;;;18.10;2.97;;;13.60;99.90;;;;;;4990359;28;20105;-95
2023/09/29 08:47:49;;;;;;;15.48;2.70;;;13.70;99.90;;;;;;4978886;28;20061;-94
2023/09/29 08:52:59;;;;;;;16.67;2.30;;;13.80;99.90;;;;;;5106974;23;20081;-92
2023/09/29 08:55:28;;;;;;;14.48;2.60;;;13.90;99.90;;;;;;4986665;28;20125;-93
2023/09/29 08:57:54;;;;;;;14.23;2.13;;;13.90;99.90;;;;;;4988058;28;20022;-93
2023/09/29 09:00:21;;;;;;;20.75;3.58;;;13.90;99.90;;;;;;5004582;28;20037;-93
2023/09/29 09:02:47;;;;;;;11.18;2.83;;;14.00;99.90;;;;;;5003610;28;20052;-93
2023/09/29 09:05:17;;;;;;;13.57;3.42;;;14.00;99.90;;;;;;4992694;28;20027;-95
2023/09/29 09:07:46;;;;;;;20.55;4.10;;;14.00;99.90;;;;;;4996670;28;20571;-95
2023/09/29 09:10:15;;;;;;;12.20;2.75;;;14.10;99.90;;;;;;4994199;28;20026;-96
2023/09/29 09:12:43;;;;;;;17.60;2.70;;;14.10;99.90;;;;;;4991660;28;20054;-95
2023/09/29 09:15:11;;;;;;;19.58;3.00;;;14.10;99.90;;;;;;5016521;28;20030;-93
2023/09/29 09:17:37;;;;;;;11.38;2.08;;;14.10;99.90;;;;;;4995037;28;20048;-93
2023/09/29 09:20:03;;;;;;;10.68;2.75;;;14.20;99.90;;;;;;4992156;28;20121;-94
2023/09/29 09:22:38;;;;;;;11.73;2.47;;;14.20;99.90;;;;;;4989943;28;20018;-93
2023/09/29 09:25:04;;;;;;;13.43;2.63;;;14.30;99.90;;;;;;5000006;28;20046;-94
2023/09/29 09:27:40;;;;;;;15.75;2.53;;;14.30;99.90;;;;;;4992817;28;20030;-94
2023/09/29 09:30:23;;;;;;;16.08;2.60;;;14.30;99.90;;;;;;4996372;28;20117;-94
2023/09/29 09:32:49;;;;;;;14.05;2.22;;;14.40;99.90;;;;;;4990510;28;20025;-94
2023/09/29 09:35:28;;;;;;;19.15;2.97;;;14.40;99.90;;;;;;4997902;28;20065;-94
2023/09/29 09:37:55;;;;;;;12.68;2.20;;;14.50;99.90;;;;;;4988472;28;20026;-95
2023/09/29 09:40:25;;;;;;;22.58;3.25;;;14.50;99.90;;;;;;4990438;28;20085;-93
2023/09/29 09:43:02;;;;;;;14.57;2.30;;;14.60;99.90;;;;;;4993913;28;20018;-95
2023/09/29 09:45:34;;;;;;;10.32;2.25;;;14.60;99.90;;;;;;4988359;28;20030;-95
2023/09/29 09:48:03;;;;;;;10.65;2.25;;;14.70;99.90;;;;;;4998738;28;20116;-95
2023/09/29 09:50:32;;;;;;;10.75;2.33;;;14.70;99.90;;;;;;4994432;28;20030;-95
2023/09/29 09:53:02;;;;;;;10.02;2.72;;;14.80;99.90;;;;;;4980135;28;20395;-94
2023/09/29 09:55:50;;;;;;;14.48;2.53;;;14.80;99.90;;;;;;4979271;28;20038;-96
2023/09/29 09:58:17;;;;;;;9.13;2.53;;;14.80;99.90;;;;;;4989519;28;20120;-95
2023/09/29 10:00:54;;;;;;;12.98;3.53;;;14.90;99.90;;;;;;4998691;28;20037;-95
2023/09/29 10:03:21;;;;;;;13.88;2.80;;;15.00;99.90;;;;;;4981096;28;20034;-95
2023/09/29 10:05:53;;;;;;;14.48;2.47;;;15.10;99.90;;;;;;4979222;28;20046;-95
2023/09/29 10:08:30;;;;;;;13.77;2.40;;;15.10;99.90;;;;;;4977920;28;20031;-95
2023/09/29 10:11:10;;;;;;;9.45;2.05;;;15.20;99.90;;;;;;4978623;28;20035;-96
2023/09/29 10:13:37;;;;;;;15.10;3.00;;;15.30;99.90;;;;;;4980424;28;20037;-95
2023/09/29 10:16:05;;;;;;;9.00;2.83;;;15.40;99.90;;;;;;4999376;28;20033;-95
2023/09/29 10:18:34;;;;;;;8.48;2.42;;;15.60;99.90;;;;;;4998901;28;20029;-95
2023/09/29 10:21:08;;;;;;;12.00;2.25;;;15.70;99.90;;;;;;4998686;28;20030;-95
2023/09/29 10:23:49;;;;;;;11.30;3.28;;;15.80;99.90;;;;;;4999278;28;20049;-96
2023/09/29 10:26:15;;;;;;;10.35;2.10;;;15.80;99.90;;;;;;4999067;28;20030;-95
2023/09/29 10:28:40;;;;;;;10.07;2.20;;;15.90;99.90;;;;;;4998418;28;20824;-95
2023/09/29 10:31:15;;;;;;;12.00;2.55;;;15.90;99.90;;;;;;4997528;28;20022;-95
2023/09/29 10:33:52;;;;;;;10.38;2.53;;;15.90;99.90;;;;;;4997863;28;20034;-94
2023/09/29 10:36:19;;;;;;;10.85;1.73;;;16.00;99.90;;;;;;4981326;28;20040;-94
2023/09/29 10:38:47;;;;;;;12.98;1.77;;;16.00;99.90;;;;;;4973250;28;20034;-95
2023/09/29 10:41:15;;;;;;;9.00;1.70;;;15.90;99.90;;;;;;4997805;28;20048;-94
2023/09/29 10:43:48;;;;;;;11.60;3.13;;;15.90;99.90;;;;;;4997794;28;20089;-95
2023/09/29 10:46:15;;;;;;;7.22;1.50;;;15.90;99.90;;;;;;4997222;28;20022;-95
2023/09/29 10:48:49;;;;;;;10.35;1.80;;;16.00;99.90;;;;;;4990167;28;20082;-94
2023/09/29 10:51:31;;;;;;;8.23;2.00;;;16.10;99.90;;;;;;4981751;28;20049;-96
2023/09/29 10:54:10;;;;;;;14.65;2.67;;;16.10;99.90;;;;;;4962511;28;20031;-95
2023/09/29 10:56:47;;;;;;;11.43;2.05;;;16.20;99.90;;;;;;4992204;28;20046;-94
2023/09/29 10:59:19;;;;;;;16.60;2.47;;;16.30;99.90;;;;;;4971756;28;20037;-95
2023/09/29 11:02:12;;;;;;;7.57;1.33;;;16.40;99.90;;;;;;4999048;28;20116;-96
2023/09/29 11:04:41;;;;;;;10.23;1.98;;;16.60;99.90;;;;;;4994688;28;20027;-96
2023/09/29 11:07:09;;;;;;;9.05;2.30;;;16.60;99.90;;;;;;4980946;28;20057;-96
2023/09/29 11:09:37;;;;;;;6.40;1.60;;;16.60;99.90;;;;;;4974851;28;20027;-95
2023/09/29 11:12:04;;;;;;;10.27;1.60;;;16.60;99.90;;;;;;4984324;28;20035;-94
2023/09/29 11:14:37;;;;;;;7.78;1.85;;;16.70;99.90;;;;;;4976209;28;20026;-96
2023/09/29 11:17:10;;;;;;;9.65;2.15;;;16.70;99.90;;;;;;4999805;28;20030;-96
2023/09/29 11:19:35;;;;;;;11.95;2.13;;;16.80;99.90;;;;;;4992975;28;20029;-95
2023/09/29 11:22:02;;;;;;;12.45;1.70;;;17.00;99.90;;;;;;5005150;28;20041;-96
2023/09/29 11:24:39;;;;;;;7.07;1.38;;;17.20;99.90;;;;;;5016533;28;20026;-94
2023/09/29 11:27:10;;;;;;;4.72;1.40;;;17.60;99.90;;;;;;5011513;28;20022;-95
2023/09/29 11:29:35;;;;;;;6.05;1.40;;;18.20;99.90;;;;;;5012080;28;20046;-94
2023/09/29 11:32:01;;;;;;;8.48;1.40;;;18.60;99.90;;;;;;5010899;28;20034;-96
2023/09/29 11:34:29;;;;;;;11.48;1.60;;;18.90;99.90;;;;;;5014432;28;20030;-96
2023/09/29 11:37:02;;;;;;;8.18;1.35;;;18.90;97.80;;;;;;5014781;28;20037;-95
2023/09/29 11:39:31;;;;;;;8.55;1.25;;;18.90;96.80;;;;;;5014708;28;20018;-96
2023/09/29 11:42:05;;;;;;;9.25;1.92;;;18.90;96.60;;;;;;5013116;28;20034;-96
2023/09/29 11:52:51;;;;;;;7.43;1.40;;;19.30;92.00;;;;;;5283692;22;20058;-94
2023/09/29 11:55:38;;;;;;;10.38;2.13;;;19.20;92.00;;;;;;5015861;28;20034;-94
2023/09/29 11:58:11;;;;;;;7.85;1.23;;;19.00;91.70;;;;;;4992847;28;20038;-96
2023/09/29 12:00:37;;;;;;;4.45;1.40;;;18.80;92.00;;;;;;4993459;28;20112;-93
2023/09/29 12:06:07;;;;;;;9.88;1.50;;;18.90;91.90;;;;;;5002191;28;20041;-95
2023/09/29 12:08:38;;;;;;;8.20;1.48;;;19.00;90.80;;;;;;4986639;28;20054;-94
2023/09/29 12:11:08;;;;;;;3.80;1.20;;;19.10;90.90;;;;;;4996415;28;20060;-94
2023/09/29 12:13:39;;;;;;;5.57;1.43;;;19.20;90.40;;;;;;4983451;28;20026;-95
2023/09/29 12:16:38;;;;;;;2.20;1.05;;;19.30;89.60;;;;;;4977569;28;20308;-95
2023/09/29 12:19:07;;;;;;;3.83;1.40;;;19.70;89.70;;;;;;4987069;28;20058;-93
2023/09/29 12:21:37;;;;;;;4.53;1.83;;;20.00;88.40;;;;;;4978568;28;20031;-95
2023/09/29 12:24:04;;;;;;;6.00;1.27;;;20.30;87.50;;;;;;4980666;28;20494;-94
2023/09/29 12:26:30;;;;;;;4.20;0.70;;;20.30;85.20;;;;;;4979789;28;20033;-94
2023/09/29 12:28:55;;;;;;;3.92;1.15;;;20.20;83.80;;;;;;4980696;28;20058;-94
2023/09/29 12:31:21;;;;;;;2.72;0.80;;;19.90;83.30;;;;;;4995318;28;20018;-94
2023/09/29 12:33:48;;;;;;;5.50;1.42;;;19.70;83.30;;;;;;5000624;28;20030;-93
2023/09/29 12:36:14;;;;;;;3.63;0.80;;;19.50;83.30;;;;;;5001433;28;20037;-94
2023/09/29 12:38:43;;;;;;;3.80;0.70;;;19.40;82.90;;;;;;5002222;28;20036;-93
2023/09/29 12:41:12;;;;;;;5.03;0.88;;;19.40;83.10;;;;;;5003405;28;20044;-94
2023/09/29 12:43:40;;;;;;;7.60;1.10;;;19.40;82.80;;;;;;4985522;28;20113;-94
2023/09/29 12:46:09;;;;;;;4.20;1.10;;;19.30;82.20;;;;;;4981647;28;20104;-94
2023/09/29 12:48:38;;;;;;;3.92;1.33;;;19.10;82.60;;;;;;4981180;28;20027;-95
2023/09/29 12:51:07;;;;;;;5.00;0.90;;;18.90;83.00;;;;;;4980804;28;20031;-94
2023/09/29 12:53:36;;;;;;;7.20;1.45;;;19.00;83.70;;;;;;4978332;28;20047;-93
2023/09/29 12:56:04;;;;;;;4.30;1.10;;;18.90;84.00;;;;;;4979834;28;20046;-94
2023/09/29 12:58:32;;;;;;;8.02;0.88;;;18.90;84.70;;;;;;4977644;28;20568;-94